createdAt,value
2022-10-07T00:00:29.771Z,2.63
2022-10-07T00:02:58.654Z,2.37
2022-10-07T00:05:27.520Z,2.53
2022-10-07T00:07:57.839Z,2.00
2022-10-07T00:10:27.564Z,1.97
2022-10-07T00:12:57.989Z,2.07
2022-10-07T00:15:29.555Z,2.00
2022-10-07T00:18:00.249Z,2.27
2022-10-07T00:20:29.127Z,2.00
2022-10-07T00:22:57.728Z,2.00
2022-10-07T00:25:27.070Z,2.00
2022-10-07T00:27:57.189Z,2.17
2022-10-07T00:30:25.947Z,2.33
2022-10-07T00:32:56.626Z,2.27
2022-10-07T00:35:25.156Z,2.27
2022-10-07T00:37:53.596Z,2.83
2022-10-07T00:40:22.096Z,2.40
2022-10-07T00:42:51.534Z,2.47
2022-10-07T00:45:21.396Z,2.30
2022-10-07T00:47:52.194Z,2.30
2022-10-07T00:50:29.658Z,1.87
2022-10-07T00:53:01.843Z,2.53
2022-10-07T00:55:32.122Z,2.40
2022-10-07T00:58:05.335Z,2.30
2022-10-07T01:00:33.818Z,2.13
2022-10-07T01:03:02.231Z,2.07
2022-10-07T01:05:32.489Z,2.70
2022-10-07T01:08:01.584Z,2.10
2022-10-07T01:10:38.702Z,2.53
2022-10-07T01:13:15.557Z,2.20
2022-10-07T01:15:53.634Z,2.47
2022-10-07T01:18:29.386Z,2.07
2022-10-07T01:21:03.037Z,2.10
2022-10-07T01:23:46.757Z,2.17
2022-10-07T01:26:51.662Z,3.10
2022-10-07T01:29:24.816Z,3.20
2022-10-07T01:31:58.502Z,3.27
2022-10-07T01:34:28.184Z,2.57
2022-10-07T01:36:59.815Z,2.57
2022-10-07T01:39:33.118Z,1.97
2022-10-07T01:42:03.503Z,2.07
2022-10-07T01:44:33.055Z,1.97
2022-10-07T01:47:01.791Z,2.27
2022-10-07T01:49:30.933Z,1.93
2022-10-07T01:52:24.653Z,2.37
2022-10-07T01:55:12.107Z,2.10
2022-10-07T01:57:53.118Z,2.20
2022-10-07T02:00:21.688Z,1.67
2022-10-07T02:03:06.053Z,2.33
2022-10-07T02:05:46.869Z,1.87
2022-10-07T02:08:27.993Z,2.00
2022-10-07T02:11:09.925Z,2.00
2022-10-07T02:13:49.227Z,1.97
2022-10-07T02:16:20.435Z,1.70
2022-10-07T02:18:51.998Z,1.90
2022-10-07T02:21:29.005Z,2.20
2022-10-07T02:24:00.228Z,2.30
2022-10-07T02:26:32.175Z,2.00
2022-10-07T02:29:06.290Z,2.10
2022-10-07T02:31:36.351Z,2.60
2022-10-07T02:34:07.825Z,2.37
2022-10-07T02:36:39.563Z,2.27
2022-10-07T02:39:08.967Z,2.03
2022-10-07T02:41:45.122Z,1.73
2022-10-07T02:44:26.285Z,2.10
2022-10-07T02:47:00.751Z,2.20
2022-10-07T02:49:31.624Z,2.60
2022-10-07T02:52:05.633Z,2.23
2022-10-07T02:54:38.694Z,2.60
2022-10-07T02:57:09.010Z,2.40
2022-10-07T02:59:41.030Z,2.40
2022-10-07T03:02:15.977Z,2.30
2022-10-07T03:04:46.842Z,2.27
2022-10-07T03:07:18.346Z,2.10
2022-10-07T03:09:47.141Z,1.97
2022-10-07T03:12:17.287Z,4.50
2022-10-07T03:14:50.277Z,6.07
2022-10-07T03:17:20.216Z,5.00
2022-10-07T03:19:49.726Z,5.57
2022-10-07T03:22:21.832Z,3.20
2022-10-07T03:24:50.488Z,5.40
2022-10-07T03:27:18.633Z,3.70
2022-10-07T03:29:49.126Z,3.13
2022-10-07T03:32:17.403Z,2.77
2022-10-07T03:34:45.865Z,2.30
2022-10-07T03:37:14.301Z,2.43
2022-10-07T03:39:42.774Z,2.23
2022-10-07T03:42:12.316Z,2.40
2022-10-07T03:44:40.872Z,2.37
2022-10-07T03:47:11.076Z,2.80
2022-10-07T03:49:41.756Z,2.50
2022-10-07T03:52:10.282Z,2.90
2022-10-07T03:54:38.720Z,2.70
2022-10-07T03:57:27.816Z,2.50
2022-10-07T03:59:56.045Z,3.27
2022-10-07T04:02:26.167Z,2.60
2022-10-07T04:04:54.668Z,3.07
2022-10-07T04:07:23.182Z,2.40
2022-10-07T04:09:54.571Z,2.90
2022-10-07T04:12:23.211Z,2.30
2022-10-07T04:14:51.973Z,2.27
2022-10-07T04:17:20.720Z,2.47
2022-10-07T04:19:50.527Z,2.47
2022-10-07T04:22:19.000Z,3.73
2022-10-07T04:25:07.937Z,2.90
2022-10-07T04:27:51.307Z,3.37
2022-10-07T04:30:20.385Z,3.30
2022-10-07T04:32:50.809Z,3.00
2022-10-07T04:35:22.504Z,2.87
2022-10-07T04:37:52.287Z,3.40
2022-10-07T04:40:22.381Z,3.07
2022-10-07T04:43:08.481Z,2.80
2022-10-07T04:45:38.150Z,2.87
2022-10-07T04:48:07.869Z,5.00
2022-10-07T04:50:42.454Z,5.20
2022-10-07T04:53:14.472Z,5.30
2022-10-07T04:55:45.921Z,4.30
2022-10-07T04:58:14.772Z,4.50
2022-10-07T05:00:44.756Z,5.20
2022-10-07T05:03:13.733Z,8.10
2022-10-07T05:05:44.878Z,5.80
2022-10-07T05:08:14.937Z,5.77
2022-10-07T05:10:46.604Z,5.40
2022-10-07T05:13:17.592Z,4.13
2022-10-07T05:15:53.211Z,3.37
2022-10-07T05:18:22.640Z,2.93
2022-10-07T05:20:53.049Z,2.70
2022-10-07T05:23:28.150Z,3.43
2022-10-07T05:26:02.081Z,3.53
2022-10-07T05:28:31.913Z,3.37
2022-10-07T05:31:06.246Z,3.70
2022-10-07T05:33:34.615Z,3.30
2022-10-07T05:36:04.952Z,3.53
2022-10-07T05:38:34.109Z,3.37
2022-10-07T05:41:03.944Z,3.13
2022-10-07T05:43:34.686Z,3.10
2022-10-07T05:46:04.170Z,3.60
2022-10-07T05:48:39.256Z,3.87
2022-10-07T05:51:09.991Z,3.50
2022-10-07T05:53:41.442Z,3.80
2022-10-07T05:56:12.864Z,4.13
2022-10-07T05:58:41.617Z,3.57
2022-10-07T06:01:15.891Z,4.93
2022-10-07T06:03:45.191Z,3.63
2022-10-07T06:06:15.332Z,3.63
2022-10-07T06:08:43.774Z,4.00
2022-10-07T06:11:31.452Z,3.40
2022-10-07T06:14:00.349Z,3.37
2022-10-07T06:16:28.699Z,3.70
2022-10-07T06:18:57.871Z,3.90
2022-10-07T06:21:28.549Z,4.30
2022-10-07T06:23:58.363Z,3.57
2022-10-07T06:26:28.099Z,3.53
2022-10-07T06:28:56.368Z,3.60
2022-10-07T06:31:25.976Z,3.63
2022-10-07T06:33:54.685Z,5.17
2022-10-07T06:36:22.853Z,4.90
2022-10-07T06:38:55.392Z,3.83
2022-10-07T06:41:24.625Z,3.70
2022-10-07T06:43:56.796Z,3.70
2022-10-07T06:46:25.654Z,3.80
2022-10-07T06:48:54.248Z,3.60
2022-10-07T06:51:23.377Z,4.20
2022-10-07T06:53:58.131Z,3.63
2022-10-07T06:56:27.075Z,3.73
2022-10-07T06:58:55.536Z,3.87
2022-10-07T07:01:25.737Z,4.03
2022-10-07T07:03:55.654Z,4.53
2022-10-07T07:06:24.483Z,4.23
2022-10-07T07:08:58.654Z,4.40
2022-10-07T07:11:41.914Z,4.27
2022-10-07T07:14:11.601Z,4.20
2022-10-07T07:16:40.111Z,4.30
2022-10-07T07:19:10.159Z,4.70
2022-10-07T07:21:41.173Z,4.50
2022-10-07T07:24:11.978Z,5.10
2022-10-07T07:26:40.600Z,4.77
2022-10-07T07:29:09.160Z,4.87
2022-10-07T07:31:40.367Z,4.80
2022-10-07T07:34:12.954Z,4.83
2022-10-07T07:36:45.693Z,4.60
2022-10-07T07:39:17.554Z,4.37
2022-10-07T07:41:47.964Z,4.27
2022-10-07T07:44:18.784Z,4.73
2022-10-07T07:46:52.386Z,5.10
2022-10-07T07:49:22.401Z,4.37
2022-10-07T07:51:51.525Z,4.70
2022-10-07T07:54:21.585Z,4.40
2022-10-07T07:56:50.834Z,5.17
2022-10-07T07:59:19.301Z,4.33
2022-10-07T08:01:48.114Z,4.23
2022-10-07T08:04:16.772Z,4.70
2022-10-07T08:06:44.990Z,4.10
2022-10-07T08:09:13.321Z,4.03
2022-10-07T08:11:45.523Z,3.57
2022-10-07T08:14:14.435Z,4.20
2022-10-07T08:16:43.691Z,4.47
2022-10-07T08:19:12.786Z,4.00
2022-10-07T08:21:41.286Z,4.17
2022-10-07T08:24:14.649Z,3.90
2022-10-07T08:26:44.915Z,3.87
2022-10-07T08:29:13.888Z,4.17
2022-10-07T08:31:42.694Z,4.30
2022-10-07T08:34:12.489Z,5.00
2022-10-07T08:36:41.462Z,4.47
2022-10-07T08:39:09.725Z,4.47
2022-10-07T08:41:57.569Z,4.73
2022-10-07T08:44:29.720Z,4.60
2022-10-07T08:47:03.729Z,4.53
2022-10-07T08:49:40.625Z,4.10
2022-10-07T08:52:28.412Z,4.17
2022-10-07T08:54:57.199Z,4.50
2022-10-07T08:57:39.016Z,4.23
2022-10-07T09:00:09.484Z,4.90
2022-10-07T09:02:49.277Z,4.43
2022-10-07T09:05:23.949Z,4.57
2022-10-07T09:07:55.925Z,3.97
2022-10-07T09:10:32.154Z,4.93
2022-10-07T09:13:07.492Z,4.03
2022-10-07T09:15:42.784Z,3.93
2022-10-07T09:18:21.637Z,3.97
2022-10-07T09:20:55.139Z,3.67
2022-10-07T09:23:26.434Z,3.67
2022-10-07T09:25:56.022Z,4.03
2022-10-07T09:28:30.113Z,3.43
2022-10-07T09:31:01.169Z,3.67
2022-10-07T09:33:30.592Z,3.50
2022-10-07T09:36:07.090Z,3.90
2022-10-07T09:38:39.024Z,4.00
2022-10-07T09:41:17.489Z,3.97
2022-10-07T09:43:59.065Z,3.70
2022-10-07T09:46:35.553Z,4.10
2022-10-07T09:49:05.795Z,4.33
2022-10-07T09:51:35.526Z,4.37
2022-10-07T09:54:06.747Z,3.50
2022-10-07T09:56:40.860Z,3.80
2022-10-07T09:59:20.047Z,3.57
2022-10-07T10:01:55.160Z,3.30
2022-10-07T10:04:29.478Z,3.60
2022-10-07T10:07:04.860Z,3.00
2022-10-07T10:09:36.306Z,3.00
2022-10-07T10:12:13.998Z,3.30
2022-10-07T10:14:51.871Z,2.90
2022-10-07T10:17:31.843Z,2.90
2022-10-07T10:20:31.767Z,2.80
2022-10-07T10:23:01.811Z,2.80
2022-10-07T10:26:07.060Z,2.87
2022-10-07T10:28:45.532Z,2.57
2022-10-07T10:31:26.216Z,2.30
2022-10-07T10:34:01.910Z,2.80
2022-10-07T10:36:34.127Z,3.27
2022-10-07T10:39:05.890Z,2.40
2022-10-07T10:41:44.441Z,1.77
2022-10-07T10:44:34.428Z,1.80
2022-10-07T10:47:15.981Z,1.53
2022-10-07T10:50:00.907Z,1.60
2022-10-07T10:52:40.252Z,1.40
2022-10-07T10:55:23.797Z,1.83
2022-10-07T10:58:03.910Z,1.43
2022-10-07T11:00:41.018Z,1.80
2022-10-07T11:03:42.422Z,1.60
2022-10-07T11:06:17.329Z,1.70
2022-10-07T11:08:47.746Z,1.30
2022-10-07T11:11:20.957Z,1.60
2022-10-07T11:13:54.654Z,1.67
2022-10-07T11:16:28.026Z,1.80
2022-10-07T11:19:02.668Z,1.30
2022-10-07T11:21:40.185Z,1.63
2022-10-07T11:24:17.017Z,1.70
2022-10-07T11:26:52.422Z,1.30
2022-10-07T11:29:31.396Z,1.50
2022-10-07T11:32:10.122Z,1.70
2022-10-07T11:34:48.944Z,1.70
2022-10-07T11:37:26.951Z,1.70
2022-10-07T11:39:55.482Z,1.33
2022-10-07T11:42:27.536Z,1.63
2022-10-07T11:45:03.034Z,1.50
2022-10-07T11:47:36.710Z,1.30
2022-10-07T11:50:11.393Z,1.90
2022-10-07T11:52:43.727Z,1.60
2022-10-07T11:55:22.514Z,1.60
2022-10-07T11:57:55.803Z,1.60
2022-10-07T12:00:29.259Z,1.70
2022-10-07T12:03:01.158Z,1.70
2022-10-07T12:05:59.271Z,1.57
2022-10-07T12:08:37.674Z,1.43
2022-10-07T12:11:42.013Z,2.00
2022-10-07T12:14:35.739Z,1.40
2022-10-07T12:17:21.493Z,1.60
2022-10-07T12:20:29.504Z,1.60
2022-10-07T12:23:40.615Z,1.70
2022-10-07T12:26:53.272Z,1.70
2022-10-07T12:29:58.727Z,2.10
2022-10-07T12:32:58.116Z,1.80
2022-10-07T12:35:59.772Z,1.83
2022-10-07T12:38:29.931Z,1.70
2022-10-07T12:41:19.435Z,1.60
2022-10-07T12:43:53.937Z,1.47
2022-10-07T12:46:27.605Z,1.90
2022-10-07T12:49:02.137Z,1.73
2022-10-07T12:51:39.706Z,2.00
2022-10-07T12:54:17.936Z,1.87
2022-10-07T12:56:52.576Z,1.70
2022-10-07T12:59:49.394Z,1.67
2022-10-07T13:02:43.876Z,2.17
2022-10-07T13:05:55.163Z,1.57
2022-10-07T13:09:11.594Z,1.87
2022-10-07T13:12:00.106Z,1.70
2022-10-07T13:14:34.394Z,1.70
2022-10-07T13:17:20.066Z,1.80
2022-10-07T13:19:57.763Z,1.60
2022-10-07T13:22:30.964Z,1.50
2022-10-07T13:25:03.843Z,1.45
2022-10-07T13:27:38.128Z,1.40
2022-10-07T13:30:09.887Z,1.33
2022-10-07T13:32:40.073Z,1.30
2022-10-07T13:35:32.421Z,1.33
2022-10-07T13:38:04.415Z,1.63
2022-10-07T13:40:36.042Z,1.80
2022-10-07T13:43:20.833Z,1.50
2022-10-07T13:45:49.701Z,1.83
2022-10-07T13:48:19.640Z,1.63
2022-10-07T13:50:50.783Z,1.70
2022-10-07T13:53:26.080Z,1.83
2022-10-07T13:56:07.282Z,2.07
2022-10-07T13:58:38.887Z,1.87
2022-10-07T14:01:08.337Z,2.00
2022-10-07T14:03:36.987Z,1.90
2022-10-07T14:06:06.016Z,1.83
2022-10-07T14:08:34.587Z,1.80
2022-10-07T14:11:09.640Z,1.87
2022-10-07T14:13:47.229Z,2.17
2022-10-07T14:16:23.161Z,4.20
2022-10-07T14:18:54.676Z,2.47
2022-10-07T14:21:23.344Z,1.43
2022-10-07T14:23:52.165Z,2.37
2022-10-07T14:26:43.682Z,2.07
2022-10-07T14:29:41.228Z,1.90
2022-10-07T14:32:36.603Z,1.83
2022-10-07T14:35:23.894Z,1.73
2022-10-07T14:37:56.225Z,1.73
2022-10-07T14:40:26.699Z,2.00
2022-10-07T14:42:56.867Z,1.83
2022-10-07T14:45:27.225Z,2.47
2022-10-07T14:47:55.883Z,2.03
2022-10-07T14:50:24.613Z,2.60
2022-10-07T14:52:54.649Z,3.50
2022-10-07T14:55:27.945Z,2.83
2022-10-07T14:57:57.990Z,2.40
2022-10-07T15:00:34.901Z,2.37
2022-10-07T15:03:07.595Z,2.50
2022-10-07T15:05:36.595Z,2.20
2022-10-07T15:08:05.173Z,2.20
2022-10-07T15:10:34.761Z,2.00
2022-10-07T15:13:13.556Z,1.98
2022-10-07T15:15:47.146Z,2.28
2022-10-07T15:18:16.678Z,2.50
2022-10-07T15:20:45.044Z,1.97
2022-10-07T15:23:15.060Z,2.17
2022-10-07T15:25:47.123Z,2.20
2022-10-07T15:28:17.685Z,2.00
2022-10-07T15:30:48.526Z,2.28
2022-10-07T15:33:19.463Z,2.42
2022-10-07T15:35:48.913Z,2.15
2022-10-07T15:38:18.086Z,2.15
2022-10-07T15:41:00.076Z,2.30
2022-10-07T15:43:29.032Z,2.55
2022-10-07T15:46:03.065Z,2.33
2022-10-07T15:48:33.277Z,1.80
2022-10-07T15:51:02.149Z,2.22
2022-10-07T15:53:32.849Z,1.98
2022-10-07T15:56:01.901Z,2.30
2022-10-07T15:58:32.050Z,1.98
2022-10-07T16:01:05.050Z,2.45
2022-10-07T16:03:40.374Z,2.50
2022-10-07T16:06:11.425Z,2.75
2022-10-07T16:08:40.232Z,2.60
2022-10-07T16:11:10.915Z,2.80
2022-10-07T16:13:40.869Z,3.53
2022-10-07T16:16:12.441Z,3.43
2022-10-07T16:18:41.880Z,2.70
2022-10-07T16:21:15.367Z,3.20
2022-10-07T16:23:48.831Z,2.97
2022-10-07T16:26:22.383Z,2.97
2022-10-07T16:29:10.214Z,2.90
2022-10-07T16:31:44.980Z,2.90
2022-10-07T16:34:21.682Z,3.47
2022-10-07T16:36:54.522Z,10.07
2022-10-07T16:39:25.636Z,13.10
2022-10-07T16:41:55.341Z,7.60
2022-10-07T16:44:24.904Z,7.37
2022-10-07T16:46:57.530Z,6.67
2022-10-07T16:49:27.849Z,4.30
2022-10-07T16:51:57.256Z,3.63
2022-10-07T16:54:26.127Z,3.00
2022-10-07T16:56:54.789Z,3.67
2022-10-07T16:59:26.289Z,3.20
2022-10-07T17:02:03.573Z,6.40
2022-10-07T17:04:34.849Z,5.17
2022-10-07T17:07:06.352Z,4.60
2022-10-07T17:09:36.419Z,3.67
2022-10-07T17:12:07.240Z,2.20
2022-10-07T17:14:39.293Z,2.67
2022-10-07T17:17:10.666Z,2.90
2022-10-07T17:19:40.709Z,2.93
2022-10-07T17:22:11.261Z,3.07
2022-10-07T17:24:40.544Z,3.20
2022-10-07T17:27:09.323Z,2.73
2022-10-07T17:29:38.662Z,2.60
2022-10-07T17:32:11.617Z,2.67
2022-10-07T17:34:45.296Z,2.83
2022-10-07T17:37:14.937Z,2.87
2022-10-07T17:39:44.348Z,3.53
2022-10-07T17:42:13.884Z,2.73
2022-10-07T17:44:42.919Z,2.93
2022-10-07T17:47:14.173Z,2.70
2022-10-07T17:49:42.953Z,4.30
2022-10-07T17:52:13.640Z,8.47
2022-10-07T17:54:44.108Z,8.23
2022-10-07T17:57:14.808Z,3.43
2022-10-07T17:59:47.366Z,3.23
2022-10-07T18:02:18.157Z,3.40
2022-10-07T18:04:47.136Z,3.20
2022-10-07T18:07:17.711Z,3.10
2022-10-07T18:09:47.681Z,3.67
2022-10-07T18:12:48.208Z,4.00
2022-10-07T18:15:21.374Z,16.47
2022-10-07T18:17:52.835Z,12.67
2022-10-07T18:20:23.261Z,7.37
2022-10-07T18:22:57.589Z,7.60
2022-10-07T18:25:26.409Z,4.83
2022-10-07T18:27:54.530Z,3.53
2022-10-07T18:30:22.742Z,3.30
2022-10-07T18:32:52.851Z,3.27
2022-10-07T18:35:26.264Z,3.10
2022-10-07T18:37:55.808Z,4.10
2022-10-07T18:40:25.046Z,3.70
2022-10-07T18:42:53.921Z,3.73
2022-10-07T18:45:25.022Z,3.30
2022-10-07T18:47:55.357Z,3.30
2022-10-07T18:50:24.788Z,4.00
2022-10-07T18:52:56.010Z,3.60
2022-10-07T18:55:24.721Z,3.90
2022-10-07T18:57:55.854Z,3.40
2022-10-07T19:00:24.699Z,3.70
2022-10-07T19:02:57.178Z,4.93
2022-10-07T19:05:25.709Z,4.60
2022-10-07T19:07:54.193Z,5.33
2022-10-07T19:10:23.155Z,5.10
2022-10-07T19:13:09.201Z,5.30
2022-10-07T19:15:41.304Z,6.03
2022-10-07T19:18:11.415Z,5.63
2022-10-07T19:20:40.822Z,5.00
2022-10-07T19:23:11.782Z,5.53
2022-10-07T19:25:48.665Z,6.60
2022-10-07T19:28:17.439Z,5.70
2022-10-07T19:30:46.109Z,5.60
2022-10-07T19:33:16.466Z,5.20
2022-10-07T19:35:47.531Z,4.97
2022-10-07T19:38:16.108Z,5.87
2022-10-07T19:40:45.941Z,4.50
2022-10-07T19:43:15.607Z,5.60
2022-10-07T19:45:45.465Z,4.57
2022-10-07T19:48:16.252Z,5.50
2022-10-07T19:50:46.310Z,4.70
2022-10-07T19:53:15.657Z,4.40
2022-10-07T19:55:46.544Z,5.10
2022-10-07T19:58:15.046Z,5.53
2022-10-07T20:00:46.517Z,4.90
2022-10-07T20:03:16.790Z,4.10
2022-10-07T20:05:45.529Z,4.53
2022-10-07T20:08:17.968Z,4.50
2022-10-07T20:10:46.551Z,4.77
2022-10-07T20:13:17.718Z,5.00
2022-10-07T20:15:50.882Z,5.00
2022-10-07T20:18:21.476Z,6.00
2022-10-07T20:20:50.945Z,5.20
2022-10-07T20:23:21.328Z,5.97
2022-10-07T20:25:49.551Z,6.17
2022-10-07T20:28:18.059Z,5.63
2022-10-07T20:30:46.561Z,6.57
2022-10-07T20:33:15.575Z,6.57
2022-10-07T20:35:46.666Z,7.27
2022-10-07T20:38:15.472Z,6.63
2022-10-07T20:41:00.889Z,7.27
2022-10-07T20:43:30.096Z,6.73
2022-10-07T20:45:59.600Z,5.50
2022-10-07T20:48:32.196Z,7.27
2022-10-07T20:51:08.541Z,6.97
2022-10-07T20:53:37.117Z,5.50
2022-10-07T20:56:07.284Z,5.07
2022-10-07T20:58:37.727Z,5.10
2022-10-07T21:01:08.953Z,5.50
2022-10-07T21:03:38.286Z,3.80
2022-10-07T21:06:08.789Z,3.93
2022-10-07T21:08:37.186Z,3.87
2022-10-07T21:11:07.988Z,5.27
2022-10-07T21:13:36.515Z,4.70
2022-10-07T21:16:07.702Z,5.00
2022-10-07T21:18:38.152Z,5.00
2022-10-07T21:21:08.933Z,5.73
2022-10-07T21:23:38.109Z,4.87
2022-10-07T21:26:08.416Z,5.57
2022-10-07T21:28:38.111Z,6.37
2022-10-07T21:31:09.024Z,5.50
2022-10-07T21:33:39.557Z,5.67
2022-10-07T21:36:19.097Z,6.30
2022-10-07T21:38:53.159Z,5.70
2022-10-07T21:41:24.261Z,5.40
2022-10-07T21:43:54.224Z,5.40
2022-10-07T21:46:25.612Z,5.60
2022-10-07T21:48:55.585Z,5.37
2022-10-07T21:51:29.796Z,5.43
2022-10-07T21:53:59.667Z,5.80
2022-10-07T21:56:32.124Z,5.83
2022-10-07T21:59:04.103Z,4.80
2022-10-07T22:01:33.710Z,5.00
2022-10-07T22:04:06.673Z,5.33
2022-10-07T22:06:55.651Z,4.53
2022-10-07T22:09:25.021Z,5.20
2022-10-07T22:11:56.457Z,5.17
2022-10-07T22:14:27.844Z,5.40
2022-10-07T22:16:56.807Z,5.40
2022-10-07T22:19:25.540Z,5.20
2022-10-07T22:21:55.561Z,5.40
2022-10-07T22:24:25.131Z,5.27
2022-10-07T22:26:53.720Z,5.10
2022-10-07T22:29:23.593Z,5.40
2022-10-07T22:31:52.192Z,5.50
2022-10-07T22:34:50.143Z,5.53
2022-10-07T22:37:20.316Z,5.70
2022-10-07T22:39:49.157Z,4.97
2022-10-07T22:42:18.626Z,5.67
2022-10-07T22:44:46.788Z,5.17
2022-10-07T22:47:16.576Z,5.33
2022-10-07T22:49:45.499Z,5.63
2022-10-07T22:52:15.865Z,5.10
2022-10-07T22:54:46.499Z,4.40
2022-10-07T22:57:16.083Z,4.93
2022-10-07T22:59:45.174Z,4.60
2022-10-07T23:02:13.645Z,5.33
2022-10-07T23:04:42.461Z,5.40
2022-10-07T23:07:13.352Z,5.63
2022-10-07T23:09:42.064Z,5.33
2022-10-07T23:12:12.496Z,4.87
2022-10-07T23:14:41.961Z,4.53
2022-10-07T23:17:11.272Z,5.20
2022-10-07T23:19:40.061Z,5.23
2022-10-07T23:22:12.336Z,4.70
2022-10-07T23:24:41.006Z,5.23
2022-10-07T23:27:10.470Z,4.37
2022-10-07T23:29:40.986Z,4.77
2022-10-07T23:32:10.269Z,4.27
2022-10-07T23:34:40.187Z,4.50
2022-10-07T23:37:09.628Z,5.00
2022-10-07T23:39:37.781Z,4.90
2022-10-07T23:42:08.894Z,4.70
2022-10-07T23:44:37.569Z,5.47
2022-10-07T23:47:09.966Z,4.87
2022-10-07T23:49:39.264Z,6.00
2022-10-07T23:52:07.999Z,5.20
2022-10-07T23:54:36.271Z,5.03
2022-10-07T23:57:04.529Z,4.87
2022-10-07T23:59:34.245Z,4.70
